SWA682 KMKE-KBWI
Flight info
| Callsign | SWA682 |
|---|---|
| Flight time | N/A |
| Altitude | 37000 |
| Route | UECKR6 SAMPL DCT ADIME DCT OTENS DCT ANEWA DCT JERRI DCT NUSMM ANTHM5 |
| Aircraft | B737/M-SDE2E3FGHIRWXY/LB1 |
Departure
| Time | 2026-04-12 02:11 |
|---|---|
| Airport | General Mitchell International Airport (KMKE) |
Arrival
| Time | N/A |
|---|---|
| Airport | Baltimore/Washington International Thurgood Marshall Airport (KBWI) |
| Time | Latitude | Longitude | Altitude | Speed | Heading |
|---|---|---|---|---|---|
| 2026-04-12 01:42 | 42.95077 | -87.90135 | 675 ft | 0 kts | 118° |
| 2026-04-12 02:02 | 42.95079 | -87.90140 | 675 ft | 2 kts | 118° |
| 2026-04-12 02:02 | 42.95086 | -87.90158 | 675 ft | 2 kts | 118° |
| 2026-04-12 02:02 | 42.95091 | -87.90169 | 675 ft | 2 kts | 118° |
| 2026-04-12 02:02 | 42.95095 | -87.90189 | 675 ft | 2 kts | 86° |
| 2026-04-12 02:03 | 42.95091 | -87.90209 | 675 ft | 2 kts | 62° |
| 2026-04-12 02:03 | 42.95082 | -87.90224 | 675 ft | 1 kts | 37° |
| 2026-04-12 02:03 | 42.95077 | -87.90229 | 675 ft | 1 kts | 30° |
| 2026-04-12 02:03 | 42.95075 | -87.90231 | 675 ft | 0 kts | 31° |
| 2026-04-12 02:05 | 42.95083 | -87.90224 | 675 ft | 5 kts | 31° |
| 2026-04-12 02:06 | 42.95143 | -87.90171 | 674 ft | 13 kts | 33° |
| 2026-04-12 02:06 | 42.95207 | -87.90076 | 674 ft | 14 kts | 89° |
| 2026-04-12 02:06 | 42.95154 | -87.89968 | 674 ft | 13 kts | 132° |
| 2026-04-12 02:06 | 42.95089 | -87.89872 | 674 ft | 14 kts | 133° |
| 2026-04-12 02:07 | 42.95010 | -87.89799 | 674 ft | 13 kts | 156° |
| 2026-04-12 02:07 | 42.94973 | -87.89694 | 674 ft | 13 kts | 94° |
| 2026-04-12 02:07 | 42.95001 | -87.89587 | 674 ft | 13 kts | 15° |
| 2026-04-12 02:07 | 42.95093 | -87.89566 | 674 ft | 13 kts | 8° |
| 2026-04-12 02:08 | 42.95187 | -87.89549 | 674 ft | 13 kts | 7° |
| 2026-04-12 02:08 | 42.95280 | -87.89532 | 674 ft | 13 kts | 7° |
| 2026-04-12 02:08 | 42.95375 | -87.89517 | 675 ft | 13 kts | 7° |
| 2026-04-12 02:08 | 42.95465 | -87.89502 | 676 ft | 12 kts | 7° |
| 2026-04-12 02:09 | 42.95552 | -87.89487 | 677 ft | 12 kts | 7° |
| 2026-04-12 02:09 | 42.95633 | -87.89474 | 678 ft | 11 kts | 6° |
| 2026-04-12 02:09 | 42.95707 | -87.89462 | 680 ft | 9 kts | 9° |
| 2026-04-12 02:09 | 42.95744 | -87.89403 | 681 ft | 8 kts | 78° |
| 2026-04-12 02:10 | 42.95743 | -87.89325 | 681 ft | 8 kts | 112° |
| 2026-04-12 02:10 | 42.95707 | -87.89310 | 681 ft | 0 kts | 187° |
| 2026-04-12 02:10 | 42.95616 | -87.89326 | 679 ft | 47 kts | 187° |
| 2026-04-12 02:10 | 42.95005 | -87.89432 | 674 ft | 125 kts | 187° |
| 2026-04-12 02:11 | 42.93998 | -87.89624 | 855 ft | 161 kts | 187° |
| 2026-04-12 02:11 | 42.92885 | -87.89831 | 1594 ft | 170 kts | 183° |
| 2026-04-12 02:11 | 42.91650 | -87.90048 | 2179 ft | 186 kts | 185° |
| 2026-04-12 02:11 | 42.90344 | -87.90351 | 2712 ft | 199 kts | 187° |
| 2026-04-12 02:12 | 42.88932 | -87.90674 | 3242 ft | 214 kts | 187° |
| 2026-04-12 02:12 | 42.87427 | -87.90986 | 3826 ft | 229 kts | 187° |
| 2026-04-12 02:12 | 42.85794 | -87.91285 | 4481 ft | 241 kts | 187° |
| 2026-04-12 02:12 | 42.84111 | -87.91370 | 4946 ft | 249 kts | 172° |
| 2026-04-12 02:13 | 42.82568 | -87.90350 | 5011 ft | 258 kts | 141° |
| 2026-04-12 02:13 | 42.81458 | -87.88312 | 5450 ft | 276 kts | 125° |
| 2026-04-12 02:13 | 42.80494 | -87.86065 | 6338 ft | 277 kts | 126° |
| 2026-04-12 02:13 | 42.79472 | -87.83853 | 7125 ft | 280 kts | 128° |
| 2026-04-12 02:14 | 42.78380 | -87.81668 | 7872 ft | 284 kts | 129° |
| 2026-04-12 02:14 | 42.77240 | -87.79466 | 8563 ft | 290 kts | 130° |
| 2026-04-12 02:14 | 42.76064 | -87.77209 | 9309 ft | 294 kts | 130° |
| 2026-04-12 02:14 | 42.74886 | -87.74932 | 10028 ft | 298 kts | 129° |
| 2026-04-12 02:15 | 42.73667 | -87.72578 | 10504 ft | 312 kts | 129° |
| 2026-04-12 02:15 | 42.72389 | -87.70117 | 10912 ft | 327 kts | 129° |
| 2026-04-12 02:15 | 42.70993 | -87.67648 | 11290 ft | 340 kts | 135° |
| 2026-04-12 02:15 | 42.69186 | -87.65526 | 11624 ft | 349 kts | 153° |
| 2026-04-12 02:16 | 42.66916 | -87.64325 | 11945 ft | 356 kts | 172° |
| 2026-04-12 02:16 | 42.64436 | -87.63989 | 12411 ft | 363 kts | 180° |
| 2026-04-12 02:16 | 42.61874 | -87.63827 | 13011 ft | 369 kts | 181° |
| 2026-04-12 02:16 | 42.59310 | -87.63655 | 13641 ft | 374 kts | 180° |
| 2026-04-12 02:17 | 42.56708 | -87.63468 | 14293 ft | 379 kts | 180° |
| 2026-04-12 02:17 | 42.54048 | -87.63273 | 14950 ft | 384 kts | 180° |
| 2026-04-12 02:17 | 42.51376 | -87.63071 | 15616 ft | 389 kts | 180° |
| 2026-04-12 02:17 | 42.48650 | -87.62853 | 16242 ft | 395 kts | 180° |
| 2026-04-12 02:18 | 42.45903 | -87.62637 | 16828 ft | 400 kts | 180° |
| 2026-04-12 02:18 | 42.43117 | -87.62515 | 17433 ft | 403 kts | 183° |
| 2026-04-12 02:18 | 42.40293 | -87.62719 | 18016 ft | 405 kts | 188° |
| 2026-04-12 02:18 | 42.37484 | -87.63199 | 18580 ft | 409 kts | 192° |
| 2026-04-12 02:19 | 42.34676 | -87.63776 | 19170 ft | 413 kts | 191° |
| 2026-04-12 02:19 | 42.31797 | -87.64050 | 19731 ft | 421 kts | 183° |
| 2026-04-12 02:19 | 42.28877 | -87.63674 | 20303 ft | 429 kts | 173° |
| 2026-04-12 02:19 | 42.25949 | -87.62611 | 20837 ft | 438 kts | 164° |
| 2026-04-12 02:20 | 42.23127 | -87.61111 | 21334 ft | 445 kts | 160° |
| 2026-04-12 02:20 | 42.20291 | -87.59386 | 21830 ft | 449 kts | 158° |
| 2026-04-12 02:20 | 42.17456 | -87.57604 | 22305 ft | 454 kts | 158° |
| 2026-04-12 02:20 | 42.14554 | -87.55808 | 22837 ft | 457 kts | 159° |
| 2026-04-12 02:21 | 42.11640 | -87.54055 | 23304 ft | 460 kts | 160° |
| 2026-04-12 02:21 | 42.08739 | -87.52237 | 23758 ft | 467 kts | 155° |
| 2026-04-12 02:21 | 42.05983 | -87.49867 | 24214 ft | 475 kts | 145° |
| 2026-04-12 02:21 | 42.03505 | -87.46923 | 24637 ft | 483 kts | 136° |
| 2026-04-12 02:22 | 42.01345 | -87.43481 | 25089 ft | 489 kts | 127° |
| 2026-04-12 02:22 | 42.00205 | -87.41151 | 25348 ft | 493 kts | 121° |
| 2026-04-12 02:22 | 41.98680 | -87.36999 | 25788 ft | 498 kts | 112° |
| 2026-04-12 02:22 | 41.97635 | -87.32566 | 26228 ft | 501 kts | 103° |
| 2026-04-12 02:23 | 41.97079 | -87.27971 | 26717 ft | 501 kts | 95° |
| 2026-04-12 02:23 | 41.96874 | -87.23270 | 27058 ft | 505 kts | 90° |
| 2026-04-12 02:23 | 41.96878 | -87.18550 | 27491 ft | 507 kts | 87° |
| 2026-04-12 02:23 | 41.96959 | -87.13849 | 27866 ft | 510 kts | 86° |
| 2026-04-12 02:24 | 41.97048 | -87.09066 | 28236 ft | 514 kts | 86° |
| 2026-04-12 02:24 | 41.97107 | -87.04282 | 28544 ft | 519 kts | 87° |
| 2026-04-12 02:24 | 41.97124 | -86.99466 | 29033 ft | 519 kts | 87° |
| 2026-04-12 02:24 | 41.97104 | -86.94614 | 29629 ft | 517 kts | 88° |
| 2026-04-12 02:25 | 41.97055 | -86.89809 | 30190 ft | 515 kts | 88° |
| 2026-04-12 02:25 | 41.96986 | -86.85053 | 30747 ft | 513 kts | 88° |
| 2026-04-12 02:25 | 41.96903 | -86.80289 | 31159 ft | 514 kts | 88° |
| 2026-04-12 02:25 | 41.96812 | -86.75504 | 31399 ft | 519 kts | 89° |
| 2026-04-12 02:26 | 41.96715 | -86.70631 | 31783 ft | 520 kts | 89° |
| 2026-04-12 02:26 | 41.96616 | -86.65716 | 31820 ft | 529 kts | 89° |
| 2026-04-12 02:26 | 41.96516 | -86.60856 | 32354 ft | 526 kts | 88° |
| 2026-04-12 02:26 | 41.96409 | -86.55948 | 33038 ft | 521 kts | 89° |
| 2026-04-12 02:27 | 41.95919 | -86.51110 | 33291 ft | 526 kts | 102° |
| 2026-04-12 02:27 | 41.94605 | -86.46520 | 33316 ft | 522 kts | 119° |
| 2026-04-12 02:27 | 41.90333 | -86.38751 | 33325 ft | 513 kts | 133° |
| 2026-04-12 02:28 | 41.85577 | -86.31525 | 33314 ft | 514 kts | 135° |
| 2026-04-12 02:28 | 41.80801 | -86.24303 | 33365 ft | 518 kts | 133° |
| 2026-04-12 02:29 | 41.78513 | -86.20567 | 33638 ft | 521 kts | 130° |
| 2026-04-12 02:29 | 41.76432 | -86.16631 | 34191 ft | 519 kts | 124° |
| 2026-04-12 02:29 | 41.74648 | -86.12487 | 34722 ft | 518 kts | 117° |
| 2026-04-12 02:29 | 41.73139 | -86.08071 | 35074 ft | 519 kts | 111° |
| 2026-04-12 02:30 | 41.71960 | -86.03503 | 35481 ft | 519 kts | 104° |
| 2026-04-12 02:30 | 41.71124 | -85.98871 | 35842 ft | 518 kts | 98° |
| 2026-04-12 02:30 | 41.70617 | -85.94093 | 36226 ft | 516 kts | 92° |
| 2026-04-12 02:30 | 41.70459 | -85.89349 | 36625 ft | 512 kts | 85° |
| 2026-04-12 02:31 | 41.70603 | -85.84643 | 37010 ft | 509 kts | 82° |
| 2026-04-12 02:31 | 41.70706 | -85.79890 | 37331 ft | 512 kts | 85° |
| 2026-04-12 02:31 | 41.70455 | -85.70281 | 37330 ft | 515 kts | 89° |
| 2026-04-12 02:32 | 41.69988 | -85.60763 | 37339 ft | 516 kts | 90° |
| 2026-04-12 02:32 | 41.69535 | -85.51228 | 37338 ft | 514 kts | 89° |
| 2026-04-12 02:33 | 41.69134 | -85.41707 | 37348 ft | 513 kts | 89° |
| 2026-04-12 02:33 | 41.68769 | -85.32194 | 37336 ft | 511 kts | 89° |
| 2026-04-12 02:34 | 41.68417 | -85.22707 | 37325 ft | 512 kts | 89° |
| 2026-04-12 02:34 | 41.68061 | -85.13238 | 37339 ft | 512 kts | 89° |
| 2026-04-12 02:35 | 41.67688 | -85.03738 | 37342 ft | 511 kts | 89° |
| 2026-04-12 02:35 | 41.67305 | -84.94215 | 37344 ft | 512 kts | 89° |
| 2026-04-12 02:36 | 41.66919 | -84.84735 | 37346 ft | 509 kts | 89° |
| 2026-04-12 02:36 | 41.66525 | -84.75274 | 37348 ft | 510 kts | 89° |
| 2026-04-12 02:37 | 41.66128 | -84.65874 | 37340 ft | 511 kts | 89° |
| 2026-04-12 02:37 | 41.65722 | -84.56436 | 37351 ft | 509 kts | 89° |
| 2026-04-12 02:38 | 41.65308 | -84.46984 | 37349 ft | 511 kts | 89° |
| 2026-04-12 02:38 | 41.64888 | -84.37595 | 37362 ft | 507 kts | 88° |
| 2026-04-12 02:39 | 41.64460 | -84.28162 | 37396 ft | 510 kts | 90° |
| 2026-04-12 02:39 | 41.64021 | -84.18690 | 37408 ft | 507 kts | 89° |
| 2026-04-12 02:40 | 41.63580 | -84.09294 | 37407 ft | 509 kts | 90° |
| 2026-04-12 02:40 | 41.63132 | -83.99931 | 37397 ft | 508 kts | 89° |
| 2026-04-12 02:41 | 41.62675 | -83.90548 | 37411 ft | 508 kts | 89° |
| 2026-04-12 02:41 | 41.62212 | -83.81167 | 37417 ft | 507 kts | 89° |
| 2026-04-12 02:42 | 41.61737 | -83.71761 | 37415 ft | 508 kts | 89° |
| 2026-04-12 02:43 | 41.60492 | -83.57786 | 37420 ft | 511 kts | 98° |
| 2026-04-12 02:43 | 41.58696 | -83.48566 | 37425 ft | 513 kts | 103° |
| 2026-04-12 02:44 | 41.56607 | -83.39472 | 37429 ft | 514 kts | 104° |
| 2026-04-12 02:44 | 41.54473 | -83.30358 | 37431 ft | 513 kts | 105° |
| 2026-04-12 02:45 | 41.52372 | -83.21293 | 37372 ft | 514 kts | 105° |
| 2026-04-12 02:45 | 41.50290 | -83.12214 | 37380 ft | 515 kts | 104° |
| 2026-04-12 02:46 | 41.48215 | -83.03141 | 37429 ft | 513 kts | 104° |
| 2026-04-12 02:46 | 41.46135 | -82.94043 | 37428 ft | 513 kts | 104° |
| 2026-04-12 02:47 | 41.44053 | -82.84970 | 37424 ft | 514 kts | 104° |
| 2026-04-12 02:47 | 41.41963 | -82.75896 | 37430 ft | 513 kts | 104° |
| 2026-04-12 02:48 | 41.39778 | -82.66859 | 37409 ft | 514 kts | 107° |
| 2026-04-12 02:48 | 41.36523 | -82.58441 | 37400 ft | 516 kts | 126° |
| 2026-04-12 02:49 | 41.31873 | -82.51182 | 37393 ft | 515 kts | 134° |
| 2026-04-12 02:49 | 41.26868 | -82.44398 | 37396 ft | 515 kts | 136° |
| 2026-04-12 02:50 | 41.21820 | -82.37711 | 37391 ft | 516 kts | 136° |
| 2026-04-12 02:50 | 41.16766 | -82.30991 | 37410 ft | 515 kts | 136° |
| 2026-04-12 02:51 | 41.11720 | -82.24236 | 37397 ft | 514 kts | 136° |
| 2026-04-12 02:51 | 41.06722 | -82.17525 | 37392 ft | 515 kts | 136° |
| 2026-04-12 02:52 | 41.01700 | -82.10783 | 37397 ft | 513 kts | 135° |
| 2026-04-12 02:52 | 40.96687 | -82.04063 | 37410 ft | 513 kts | 136° |
| 2026-04-12 02:53 | 40.91639 | -81.97315 | 37413 ft | 515 kts | 135° |
| 2026-04-12 02:53 | 40.84110 | -81.87277 | 37425 ft | 514 kts | 135° |
| 2026-04-12 02:54 | 40.79061 | -81.80563 | 37416 ft | 515 kts | 135° |
| 2026-04-12 02:54 | 40.74017 | -81.73872 | 37413 ft | 514 kts | 136° |
| 2026-04-12 02:55 | 40.69004 | -81.67245 | 37382 ft | 512 kts | 135° |
| 2026-04-12 02:55 | 40.63972 | -81.60604 | 37388 ft | 514 kts | 135° |
| 2026-04-12 02:56 | 40.58912 | -81.53945 | 37401 ft | 512 kts | 135° |
| 2026-04-12 02:56 | 40.53903 | -81.47364 | 37414 ft | 514 kts | 135° |
| 2026-04-12 02:57 | 40.48844 | -81.40733 | 37404 ft | 514 kts | 135° |
| 2026-04-12 02:57 | 40.43793 | -81.34126 | 37423 ft | 513 kts | 136° |
| 2026-04-12 02:58 | 40.38732 | -81.27519 | 37398 ft | 512 kts | 136° |
| 2026-04-12 02:58 | 40.33684 | -81.20943 | 37430 ft | 513 kts | 135° |
| 2026-04-12 02:59 | 40.28630 | -81.14375 | 37386 ft | 512 kts | 136° |
| 2026-04-12 02:59 | 40.23578 | -81.07828 | 37392 ft | 512 kts | 136° |
| 2026-04-12 03:00 | 40.18522 | -81.01288 | 37392 ft | 512 kts | 135° |
| 2026-04-12 03:00 | 40.13469 | -80.94765 | 37390 ft | 511 kts | 135° |
| 2026-04-12 03:01 | 40.08434 | -80.88253 | 37383 ft | 514 kts | 134° |
| 2026-04-12 03:01 | 40.04041 | -80.80910 | 37399 ft | 511 kts | 118° |
| 2026-04-12 03:02 | 40.01261 | -80.72495 | 37407 ft | 504 kts | 105° |
| 2026-04-12 03:02 | 39.99221 | -80.63841 | 37398 ft | 504 kts | 102° |
| 2026-04-12 03:03 | 39.97333 | -80.55033 | 37399 ft | 503 kts | 101° |
| 2026-04-12 03:03 | 39.95464 | -80.46323 | 37429 ft | 505 kts | 101° |
| 2026-04-12 03:04 | 39.93538 | -80.37526 | 37420 ft | 504 kts | 101° |
| 2026-04-12 03:04 | 39.91589 | -80.28763 | 37394 ft | 505 kts | 102° |
| 2026-04-12 03:05 | 39.89626 | -80.20029 | 37412 ft | 507 kts | 102° |
| 2026-04-12 03:05 | 39.87630 | -80.11204 | 37419 ft | 505 kts | 102° |
| 2026-04-12 03:06 | 39.85662 | -80.02510 | 37420 ft | 506 kts | 101° |